Latest Weather Observations for Burnie Port

IDT60801

Issued at 3:05 am EST Friday 1 August 2014 (issued every 30 minutes, with the page automatically refreshed every 10 minutes)

About weather observations | Map of weather stations | Latest weather observations for TAS | Other Formats
Station Details ID: 091344 Name: BURNIE NTC AWS Lat: -41.05 Lon: 145.91 Height: 0.0 m
Data from the previous 72 hours. | See also: Recent months for locations in Tasmania
Date/Time
EST
Temp
°C
App
Temp
°C
Dew
Point
Rel
Hum
%
Delta-T
°C
Wind Press
QNH
hPa
Press
MSL
hPa
Rain
since 9 am
mm
Dir
 
Spd
km/h
Gust
km/h
Spd
kts
Gust
kts
01/03:00am 6.7 - - - - W 19 26 10 14 992.8 992.8 -
01/02:30am 6.5 - - - - W 17 26 9 14 992.8 - -
01/02:01am 6.8 - - - - WNW 28 46 15 25 993.0 - -
01/02:00am 7.2 - - - - WNW 26 46 14 25 992.9 992.9 -
01/01:30am 6.1 - - - - WSW 9 13 5 7 992.4 - -
01/01:00am 6.2 - - - - W 15 24 8 13 992.4 992.4 -
01/12:30am 6.2 - - - - W 17 26 9 14 992.4 - -
01/12:00am 6.4 - - - - W 20 35 11 19 992.2 992.2 -
 
Date/Time
EST
Temp
°C
App
Temp
°C
Dew
Point
Rel
Hum
%
Delta-T
°C
Wind Press
QNH
hPa
Press
MSL
hPa
Rain
since 9 am
mm
Dir
 
Spd
km/h
Gust
km/h
Spd
kts
Gust
kts
31/11:30pm 6.4 - - - - W 19 32 10 17 991.8 - -
31/11:00pm 6.7 - - - - W 24 41 13 22 991.6 991.6 -
31/10:30pm 6.7 - - - - W 22 44 12 24 991.5 - -
31/10:00pm 6.7 - - - - W 19 37 10 20 991.0 991.0 -
31/09:30pm 6.6 - - - - W 24 41 13 22 990.7 - -
31/09:16pm 7.0 - - - - W 28 48 15 26 990.6 - -
31/09:00pm 6.8 - - - - W 20 32 11 17 990.2 990.2 -
31/08:30pm 7.3 - - - - W 28 46 15 25 989.3 - -
31/08:28pm 7.3 - - - - W 28 46 15 25 989.5 - -
31/08:00pm 8.1 - - - - WNW 19 39 10 21 988.6 988.6 -
31/07:30pm 8.0 - - - - W 19 33 10 18 988.6 - -
31/07:00pm 8.3 - - - - WNW 24 37 13 20 988.2 988.2 -
31/06:30pm 8.2 - - - - W 24 39 13 21 988.1 - -
31/06:06pm 8.3 - - - - W 28 48 15 26 988.7 - -
31/06:00pm 9.3 - - - - W 26 37 14 20 987.6 987.6 -
31/05:30pm 9.2 - - - - W 22 35 12 19 987.0 - -
31/05:00pm 8.9 - - - - W 26 41 14 22 986.7 986.7 -
31/04:51pm 8.9 - - - - W 28 46 15 25 986.7 - -
31/04:30pm 8.9 - - - - W 33 48 18 26 986.6 - -
31/04:09pm 10.1 - - - - W 28 48 15 26 986.1 - -
31/04:00pm 9.9 - - - - W 26 44 14 24 986.2 986.2 -
31/03:30pm 9.3 - - - - W 22 43 12 23 986.1 - -
31/03:00pm 9.1 - - - - WNW 30 48 16 26 986.9 986.9 -
31/02:59pm 9.1 - - - - WNW 28 46 15 25 987.0 - -
31/02:30pm 9.6 - - - - WNW 20 33 11 18 985.9 - -
31/02:00pm 9.5 - - - - W 20 30 11 16 985.6 985.6 -
31/01:30pm 9.6 - - - - W 22 35 12 19 985.7 - -
31/01:00pm 10.1 - - - - W 22 41 12 22 985.3 985.3 -
31/12:43pm 10.6 - - - - W 28 46 15 25 984.3 - -
31/12:30pm 11.0 - - - - W 37 50 20 27 983.9 - -
31/12:21pm 11.7 - - - - WNW 37 50 20 27 983.6 - -
31/12:00pm 12.8 - - - - NNW 6 52 3 28 983.2 983.2 -
31/11:30am 13.7 - - - - NNW 4 52 2 28 984.7 - -
31/11:00am 13.9 - - - - NNW 9 50 5 27 985.7 985.7 -
31/10:30am 13.7 - - - - NNW 24 52 13 28 986.7 - -
31/10:05am 13.5 - - - - NNW 32 50 17 27 987.4 - -
31/10:00am 13.5 - - - - NNW 11 50 6 27 987.5 987.5 -
31/09:40am 14.1 - - - - NNW 28 50 15 27 987.6 - -
31/09:30am 14.4 - - - - NNW 4 50 2 27 987.7 - -
31/09:00am 14.3 - - - - NNW 19 50 10 27 988.5 988.5 -
31/08:42am 14.1 - - - - NNW 28 50 15 27 988.7 - -
31/08:30am 13.8 - - - - NNW 2 50 1 27 989.0 - -
31/08:10am 13.9 - - - - NNW 28 50 15 27 989.5 - -
31/08:00am 13.9 - - - - NNW 26 50 14 27 989.9 989.9 -
31/07:30am 13.9 - - - - NW 32 52 17 28 990.6 - -
31/07:24am 13.8 - - - - NW 28 52 15 28 990.7 - -
31/07:00am 13.8 - - - - NW 22 52 12 28 990.8 990.8 -
31/06:30am 14.0 - - - - NW 30 52 16 28 991.0 - -
31/06:00am 13.6 - - - - NW 28 50 15 27 991.2 991.2 -
31/05:52am 13.6 - - - - NW 30 50 16 27 991.4 - -
31/05:30am 13.1 - - - - NW 35 50 19 27 991.9 - -
31/05:00am 13.7 - - - - NNW 9 33 5 18 992.2 992.2 -
31/04:32am 13.7 - - - - NW 28 52 15 28 993.1 - -
31/04:30am 13.7 - - - - NW 22 52 12 28 993.2 - -
31/04:08am 14.0 - - - - NW 30 50 16 27 993.2 - -
31/04:00am 13.9 - - - - NW 17 50 9 27 993.3 993.3 -
31/03:42am 13.8 - - - - NW 32 50 17 27 993.3 - -
31/03:30am 12.2 - - - - NW 35 50 19 27 993.6 - -
31/03:01am 12.7 - - - - WNW 30 48 16 26 994.2 - -
31/03:00am 12.8 - - - - WNW 32 48 17 26 994.4 994.4 -
31/02:35am 13.1 - - - - WNW 28 46 15 25 994.5 - -
31/02:30am 12.9 - - - - WNW 26 46 14 25 994.7 - -
31/02:15am 12.7 - - - - WNW 28 46 15 25 994.9 - -
31/02:00am 12.8 - - - - WNW 39 48 21 26 995.2 995.2 -
31/01:30am 13.2 - - - - NW 37 50 20 27 995.4 - -
31/01:00am 12.4 - - - - NW 39 50 21 27 995.7 995.7 -
31/12:30am 12.7 - - - - NW 30 50 16 27 996.0 - -
31/12:02am 12.4 - - - - NW 28 50 15 27 996.7 - -
31/12:00am 12.4 - - - - NW 24 50 13 27 996.8 996.8 -
 
Date/Time
EST
Temp
°C
App
Temp
°C
Dew
Point
Rel
Hum
%
Delta-T
°C
Wind Press
QNH
hPa
Press
MSL
hPa
Rain
since 9 am
mm
Dir
 
Spd
km/h
Gust
km/h
Spd
kts
Gust
kts
30/11:37pm 12.8 - - - - NW 32 50 17 27 996.8 - -
30/11:30pm 12.9 - - - - NW 39 50 21 27 997.2 - -
30/11:00pm 13.5 - - - - NW 32 50 17 27 997.2 997.2 -
30/10:59pm 13.6 - - - - NW 32 50 17 27 997.2 - -
30/10:30pm 13.5 - - - - NW 41 50 22 27 998.0 - -
30/10:00pm 13.6 - - - - WNW 32 48 17 26 998.1 998.1 -
30/09:30pm 13.0 - - - - WNW 32 50 17 27 998.7 - -
30/09:00pm 14.1 - - - - WNW 33 50 18 27 998.7 998.7 -
30/08:30pm 13.6 - - - - WNW 30 44 16 24 999.0 - -
30/08:00pm 13.3 - - - - WNW 32 46 17 25 999.5 999.5 -
30/07:30pm 13.3 - - - - WNW 26 44 14 24 999.6 - -
30/07:03pm 13.5 - - - - NW 32 50 17 27 999.4 - -
30/07:00pm 13.4 - - - - NW 37 50 20 27 999.3 999.3 -
30/06:30pm 13.5 - - - - NW 39 50 21 27 999.5 - -
30/06:00pm 14.0 - - - - WNW 30 46 16 25 999.6 999.6 -
30/05:37pm 14.4 - - - - WNW 28 46 15 25 999.7 - -
30/05:30pm 14.2 - - - - WNW 22 44 12 24 999.7 - -
30/05:00pm 14.2 - - - - W 24 39 13 21 999.5 999.5 -
30/04:43pm 13.6 - - - - W 30 48 16 26 999.5 - -
30/04:30pm 13.6 - - - - WNW 35 50 19 27 999.6 - -
30/04:00pm 13.8 - - - - WNW 35 48 19 26 999.1 999.1 -
30/03:30pm 14.3 - - - - WNW 28 46 15 25 999.3 - -
30/03:02pm 14.4 - - - - WNW 30 48 16 26 999.6 - -
30/03:00pm 14.4 - - - - WNW 30 44 16 24 999.6 999.6 -
30/02:30pm 14.0 - - - - WNW 32 46 17 25 999.6 - -
30/02:09pm 13.9 - - - - WNW 28 48 15 26 999.8 - -
30/02:00pm 13.3 - - - - WNW 24 43 13 23 999.9 999.9 -
30/01:30pm 13.1 - - - - WNW 26 43 14 23 1000.1 - -
30/01:00pm 12.8 - - - - NW 41 50 22 27 1000.6 1000.6 -
30/12:30pm 13.7 - - - - NW 39 50 21 27 1001.0 - -
30/12:00pm 13.4 - - - - NW 37 48 20 26 1001.6 1001.6 -
30/11:30am 13.1 - - - - WNW 30 46 16 25 1002.3 - -
30/11:00am 12.8 - - - - WNW 20 37 11 20 1002.7 1002.7 -
30/10:41am 13.4 - - - - WNW 28 48 15 26 1002.9 - -
30/10:30am 13.3 - - - - WNW 24 43 13 23 1002.9 - -
30/10:00am 12.9 - - - - WNW 24 39 13 21 1002.9 1002.9 -
30/09:30am 12.6 - - - - WNW 22 37 12 20 1002.9 - -
30/09:05am 12.5 - - - - WNW 28 48 15 26 1002.8 - -
30/09:00am 12.7 - - - - WNW 20 32 11 17 1002.9 1002.9 -
30/08:30am 12.2 - - - - WNW 15 30 8 16 1002.8 - -
30/08:00am 11.7 - - - - WNW 11 20 6 11 1002.8 1002.8 -
30/07:30am 11.4 - - - - W 11 20 6 11 1002.6 - -
30/07:00am 11.2 - - - - W 9 13 5 7 1002.4 1002.4 -
30/06:30am 11.0 - - - - W 7 17 4 9 1002.6 - -
30/06:00am 11.0 - - - - WNW 9 15 5 8 1002.5 1002.5 -
30/05:30am 11.2 - - - - W 15 22 8 12 1002.3 - -
30/05:00am 11.3 - - - - W 13 20 7 11 1002.0 1002.0 -
30/04:30am 11.4 - - - - W 17 28 9 15 1001.9 - -
30/04:00am 11.4 - - - - W 19 30 10 16 1001.7 1001.7 -
30/03:30am 11.5 - - - - W 15 26 8 14 1001.3 - -
30/03:00am 11.8 - - - - W 24 44 13 24 1001.1 1001.1 -
30/02:30am 12.1 - - - - W 30 43 16 23 1001.0 - -
30/02:03am 12.4 - - - - W 32 50 17 27 1000.7 - -
30/02:00am 12.3 - - - - W 33 50 18 27 1000.6 1000.6 -
30/01:30am 12.2 - - - - W 30 44 16 24 1000.0 - -
30/01:03am 12.4 - - - - W 30 48 16 26 999.7 - -
30/01:00am 12.4 - - - - W 32 48 17 26 999.5 999.5 -
30/12:30am 12.6 - - - - W 33 50 18 27 999.2 - -
30/12:17am 12.3 - - - - W 28 48 15 26 999.1 - -
30/12:00am 11.7 - - - - W 24 44 13 24 998.9 998.9 -
 
Date/Time
EST
Temp
°C
App
Temp
°C
Dew
Point
Rel
Hum
%
Delta-T
°C
Wind Press
QNH
hPa
Press
MSL
hPa
Rain
since 9 am
mm
Dir
 
Spd
km/h
Gust
km/h
Spd
kts
Gust
kts
29/11:48pm 12.4 - - - - W 30 48 16 26 998.7 - -
29/11:30pm 12.7 - - - - W 35 48 19 26 998.2 - -
29/11:01pm 12.2 - - - - W 28 48 15 26 998.0 - -
29/11:00pm 12.2 - - - - W 26 48 14 26 998.0 998.0 -
29/10:47pm 12.1 - - - - W 28 50 15 27 998.0 - -
29/10:30pm 11.4 - - - - W 24 43 13 23 998.0 - -
29/10:00pm 10.9 - - - - W 28 44 15 24 998.0 998.0 -
29/09:30pm 12.7 - - - - W 33 48 18 26 997.4 - -
29/09:00pm 12.0 - - - - W 28 48 15 26 997.0 997.0 -
29/08:30pm 11.4 - - - - WSW 22 37 12 20 996.7 - -
29/08:00pm 13.2 - - - - W 33 48 18 26 996.1 996.1 -
29/07:46pm 13.5 - - - - W 30 50 16 27 995.5 - -
29/07:30pm 13.9 - - - - W 33 50 18 27 995.7 - -
29/07:20pm 13.5 - - - - WNW 30 48 16 26 995.5 - -
29/07:00pm 13.5 - - - - WNW 37 50 20 27 994.9 994.9 -
29/06:30pm 14.6 - - - - WNW 37 50 20 27 994.6 - -
29/06:00pm 14.7 - - - - W 35 50 19 27 994.0 994.0 -
29/05:30pm 14.3 - - - - WNW 39 50 21 27 992.9 - -
29/05:00pm 14.2 - - - - WNW 35 50 19 27 993.1 993.1 -
29/04:30pm 14.1 - - - - WNW 30 48 16 26 993.0 - -
29/04:08pm 14.2 - - - - WNW 28 48 15 26 993.1 - -
29/04:00pm 14.1 - - - - WNW 30 46 16 25 993.2 993.2 -
29/03:30pm 13.8 - - - - NW 32 52 17 28 993.2 - -
29/03:23pm 13.8 - - - - NW 32 52 17 28 992.9 - -
29/03:00pm 13.5 - - - - NW 39 50 21 27 993.4 993.4 -
29/02:30pm 13.3 - - - - WNW 35 48 19 26 994.0 - -
29/02:00pm 12.6 - - - - WNW 22 37 12 20 994.4 994.4 -
29/01:30pm 12.8 - - - - W 32 46 17 25 994.9 - -
29/01:12pm 12.7 - - - - WNW 28 48 15 26 995.4 - -

Other Formats:

Comma delimited format used in spreadsheet applications
http://www.bom.gov.au/fwo/IDT60801/IDT60801.95963.axf

JavaScript Object Notation format (JSON) in row-major order
http://www.bom.gov.au/fwo/IDT60801/IDT60801.95963.json